Terminal Aerodrome Forecast
Issued by NWS

Home | Current Version | Previous Version | Graphics & Text | Print | Product List | Glossary On
Versions: 1 2 3 4 5 6 7 8 9 10 11 12 13
000
FTUS43 KMPX 021302 AAA
TAFAXN
TAF AMD
KAXN 021302Z 0213/0312 29006KT P6SM VCSH SCT040 BKN080
      TEMPO 0213/0214 35020G35KT 2SM TSRA OVC030CB
     FM021500 33015G23KT P6SM FEW060
     FM030100 30005KT P6SM SKC=

USA.gov is the U.S. government's official web portal to all federal, state and local government web resources and services.